Time,TemperatureF,DewpointF,PressureIn,WindDirection,WindDirectionDegrees,WindSpeedMPH,WindSpeedGustMPH,Humidity,HourlyPrecipIn,Conditions,Clouds,dailyrainin,SoftwareType,DateUTC
2013-07-05 00:03:00,73.3,71.0,30.07,WNW,288,0.0,1.0,91,0.00,,,0.00,weatherlink.com 1.10,2013-07-05 04:03:00,
2013-07-05 00:18:00,73.3,71.0,30.07,WNW,285,0.0,1.0,92,0.00,,,0.00,weatherlink.com 1.10,2013-07-05 04:18:00,
2013-07-05 00:33:00,73.3,71.0,30.07,WSW,250,0.0,1.0,91,0.00,,,0.00,weatherlink.com 1.10,2013-07-05 04:33:00,
2013-07-05 00:48:00,73.3,71.0,30.07,West,279,0.0,1.0,91,0.00,,,0.00,weatherlink.com 1.10,2013-07-05 04:48:00,
2013-07-05 01:03:00,73.3,71.0,30.07,South,189,0.0,1.0,91,0.00,,,0.00,weatherlink.com 1.10,2013-07-05 05:03:00,
2013-07-05 01:18:00,73.0,70.0,30.07,South,189,0.0,0.0,91,0.00,,,0.00,weatherlink.com 1.10,2013-07-05 05:18:00,
2013-07-05 01:34:00,72.8,71.0,30.07,West,275,0.0,1.0,93,0.00,,,0.00,weatherlink.com 1.10,2013-07-05 05:34:00,
2013-07-05 01:49:00,72.8,71.0,30.07,West,276,0.0,2.0,93,0.00,,,0.00,weatherlink.com 1.10,2013-07-05 05:49:00,
2013-07-05 02:04:00,72.6,71.0,30.07,West,279,0.0,1.0,93,0.00,,,0.00,weatherlink.com 1.10,2013-07-05 06:04:00,
2013-07-05 02:19:00,72.3,70.0,30.07,West,279,0.0,1.0,93,0.00,,,0.00,weatherlink.com 1.10,2013-07-05 06:19:00,
2013-07-05 02:34:00,71.9,70.0,30.07,West,279,0.0,0.0,93,0.00,,,0.00,weatherlink.com 1.10,2013-07-05 06:34:00,
2013-07-05 02:49:00,71.6,70.0,30.07,West,279,0.0,1.0,94,0.00,,,0.00,weatherlink.com 1.10,2013-07-05 06:49:00,
2013-07-05 03:04:00,70.6,69.0,30.07,West,279,0.0,0.0,94,0.00,,,0.00,weatherlink.com 1.10,2013-07-05 07:04:00,
2013-07-05 03:19:00,70.2,69.0,30.07,West,279,0.0,0.0,95,0.00,,,0.00,weatherlink.com 1.10,2013-07-05 07:19:00,
2013-07-05 03:34:00,70.3,69.0,30.08,West,279,0.0,1.0,96,0.00,,,0.00,weatherlink.com 1.10,2013-07-05 07:34:00,
2013-07-05 03:51:00,70.1,69.0,30.07,West,279,0.0,0.0,95,0.00,,,0.00,weatherlink.com 1.10,2013-07-05 07:51:00,
2013-07-05 04:04:00,70.2,69.0,30.07,West,279,0.0,0.0,96,0.00,,,0.00,weatherlink.com 1.10,2013-07-05 08:04:00,
2013-07-05 04:19:00,69.5,68.0,30.07,West,279,0.0,0.0,95,0.00,,,0.00,weatherlink.com 1.10,2013-07-05 08:19:00,
2013-07-05 04:34:00,68.9,68.0,30.07,West,279,0.0,0.0,96,0.00,,,0.00,weatherlink.com 1.10,2013-07-05 08:34:00,
2013-07-05 04:49:00,68.6,68.0,30.08,West,279,0.0,0.0,96,0.00,,,0.00,weatherlink.com 1.10,2013-07-05 08:49:00,
2013-07-05 05:04:00,68.3,67.0,30.09,West,279,0.0,0.0,96,0.00,,,0.00,weatherlink.com 1.10,2013-07-05 09:04:00,
2013-07-05 05:19:00,68.1,67.0,30.09,West,279,0.0,0.0,96,0.00,,,0.00,weatherlink.com 1.10,2013-07-05 09:19:00,
2013-07-05 05:49:00,67.9,67.0,30.10,West,279,0.0,0.0,97,0.00,,,0.00,weatherlink.com 1.10,2013-07-05 09:49:00,
2013-07-05 06:04:00,67.9,67.0,30.10,West,279,0.0,0.0,97,0.00,,,0.00,weatherlink.com 1.10,2013-07-05 10:04:00,
2013-07-05 06:19:00,68.2,67.0,30.10,West,279,0.0,0.0,97,0.00,,,0.00,weatherlink.com 1.10,2013-07-05 10:19:00,
2013-07-05 06:34:00,69.5,68.0,30.11,West,279,0.0,0.0,96,0.00,,,0.00,weatherlink.com 1.10,2013-07-05 10:34:00,
2013-07-05 06:49:00,71.5,70.0,30.11,West,279,0.0,0.0,94,0.00,,,0.00,weatherlink.com 1.10,2013-07-05 10:49:00,
2013-07-05 07:04:00,73.6,71.0,30.10,West,279,0.0,0.0,90,0.00,,,0.00,weatherlink.com 1.10,2013-07-05 11:04:00,
2013-07-05 07:19:00,75.4,71.0,30.10,West,279,0.0,0.0,87,0.00,,,0.00,weatherlink.com 1.10,2013-07-05 11:19:00,
2013-07-05 07:34:00,77.3,72.0,30.10,NNW,327,0.0,1.0,84,0.00,,,0.00,weatherlink.com 1.10,2013-07-05 11:34:00,
2013-07-05 07:49:00,78.6,73.0,30.10,NNW,327,0.0,0.0,83,0.00,,,0.00,weatherlink.com 1.10,2013-07-05 11:49:00,
2013-07-05 08:04:00,80.0,73.0,30.10,NNW,327,0.0,0.0,78,0.00,,,0.00,weatherlink.com 1.10,2013-07-05 12:04:00,
2013-07-05 08:19:00,80.5,72.0,30.10,NNW,327,0.0,1.0,75,0.00,,,0.00,weatherlink.com 1.10,2013-07-05 12:19:00,
2013-07-05 08:34:00,81.0,73.0,30.09,South,189,3.0,5.0,76,0.00,,,0.00,weatherlink.com 1.10,2013-07-05 12:34:00,
2013-07-05 08:49:00,81.1,73.0,30.09,West,279,0.0,4.0,76,0.00,,,0.00,weatherlink.com 1.10,2013-07-05 12:49:00,
2013-07-05 09:04:00,81.2,73.0,30.09,West,274,1.0,5.0,76,0.00,,,0.00,weatherlink.com 1.10,2013-07-05 13:04:00,
2013-07-05 09:19:00,82.4,73.0,30.09,WNW,286,0.0,4.0,73,0.00,,,0.00,weatherlink.com 1.10,2013-07-05 13:19:00,
2013-07-05 09:35:00,83.0,73.0,30.08,WSW,238,2.0,6.0,72,0.00,,,0.00,weatherlink.com 1.10,2013-07-05 13:35:00,
2013-07-05 09:50:00,83.5,73.0,30.08,WNW,286,2.0,8.0,71,0.00,,,0.00,weatherlink.com 1.10,2013-07-05 13:50:00,
2013-07-05 10:20:00,84.7,73.0,30.08,SW,214,1.0,11.0,67,0.00,,,0.00,weatherlink.com 1.10,2013-07-05 14:20:00,
2013-07-05 10:50:00,85.7,73.0,30.07,WNW,289,0.0,11.0,66,0.00,,,0.00,weatherlink.com 1.10,2013-07-05 14:50:00,
2013-07-05 11:05:00,86.5,73.0,30.07,NW,314,4.0,9.0,65,0.00,,,0.00,weatherlink.com 1.10,2013-07-05 15:05:00,
2013-07-05 11:35:00,87.4,73.0,30.07,WNW,303,2.0,8.0,63,0.00,,,0.00,weatherlink.com 1.10,2013-07-05 15:35:00,
2013-07-05 11:50:00,87.4,74.0,30.06,SW,227,0.0,8.0,64,0.00,,,0.00,weatherlink.com 1.10,2013-07-05 15:50:00,
2013-07-05 12:05:00,87.5,73.0,30.06,WNW,284,0.0,8.0,63,0.00,,,0.00,weatherlink.com 1.10,2013-07-05 16:05:00,
2013-07-05 12:20:00,88.4,72.0,30.06,West,265,6.0,12.0,59,0.00,,,0.00,weatherlink.com 1.10,2013-07-05 16:20:00,
2013-07-05 12:35:00,87.7,72.0,30.05,WSW,255,0.0,8.0,59,0.00,,,0.00,weatherlink.com 1.10,2013-07-05 16:35:00,
2013-07-05 12:50:00,87.2,74.0,30.05,SSW,208,0.0,3.0,64,0.00,,,0.00,weatherlink.com 1.10,2013-07-05 16:50:00,
2013-07-05 13:05:00,88.9,73.0,30.04,WNW,286,2.0,6.0,60,0.00,,,0.00,weatherlink.com 1.10,2013-07-05 17:05:00,
2013-07-05 13:20:00,89.0,73.0,30.04,WNW,291,4.0,8.0,60,0.00,,,0.00,weatherlink.com 1.10,2013-07-05 17:20:00,
2013-07-05 13:35:00,89.5,74.0,30.03,West,263,0.0,9.0,61,0.00,,,0.00,weatherlink.com 1.10,2013-07-05 17:35:00,
2013-07-05 13:50:00,90.3,73.0,30.03,WNW,289,4.0,8.0,57,0.00,,,0.00,weatherlink.com 1.10,2013-07-05 17:50:00,
2013-07-05 14:05:00,90.6,73.0,30.02,NW,308,1.0,10.0,56,0.00,,,0.00,weatherlink.com 1.10,2013-07-05 18:05:00,
2013-07-05 14:20:00,91.3,73.0,30.02,WSW,246,1.0,10.0,55,0.00,,,0.00,weatherlink.com 1.10,2013-07-05 18:20:00,
2013-07-05 14:35:00,91.1,72.0,30.01,WSW,240,0.0,8.0,54,0.00,,,0.00,weatherlink.com 1.10,2013-07-05 18:35:00,
2013-07-05 14:50:00,91.3,72.0,30.01,WNW,282,6.0,9.0,53,0.00,,,0.00,weatherlink.com 1.10,2013-07-05 18:50:00,
2013-07-05 15:05:00,91.3,72.0,30.01,NW,306,1.0,5.0,54,0.00,,,0.00,weatherlink.com 1.10,2013-07-05 19:05:00,
2013-07-05 15:20:00,91.8,72.0,30.00,WNW,298,6.0,9.0,52,0.00,,,0.00,weatherlink.com 1.10,2013-07-05 19:20:00,
2013-07-05 15:35:00,91.8,71.0,29.99,South,184,1.0,7.0,51,0.00,,,0.00,weatherlink.com 1.10,2013-07-05 19:35:00,
2013-07-05 15:51:00,91.9,71.0,29.99,ENE,60,0.0,8.0,51,0.00,,,0.00,weatherlink.com 1.10,2013-07-05 19:51:00,
2013-07-05 16:06:00,91.4,72.0,29.98,WNW,284,0.0,5.0,53,0.00,,,0.00,weatherlink.com 1.10,2013-07-05 20:06:00,
2013-07-05 16:21:00,92.0,71.0,29.98,WNW,288,2.0,9.0,51,0.00,,,0.00,weatherlink.com 1.10,2013-07-05 20:21:00,
2013-07-05 16:36:00,92.2,73.0,29.98,West,277,1.0,7.0,53,0.00,,,0.00,weatherlink.com 1.10,2013-07-05 20:36:00,
2013-07-05 16:51:00,92.1,73.0,29.97,NW,321,2.0,7.0,53,0.00,,,0.00,weatherlink.com 1.10,2013-07-05 20:51:00,
2013-07-05 17:06:00,91.8,73.0,29.91,WNW,291,5.0,6.0,54,0.00,,,0.00,weatherlink.com 1.10,2013-07-05 21:06:00,
2013-07-05 17:22:00,91.8,72.0,29.96,West,279,5.0,7.0,53,0.00,,,0.00,weatherlink.com 1.10,2013-07-05 21:22:00,
2013-07-05 17:36:00,90.8,71.0,29.96,WSW,242,4.0,6.0,52,0.00,,,0.00,weatherlink.com 1.10,2013-07-05 21:36:00,
2013-07-05 17:51:00,89.3,71.0,29.93,NW,309,0.0,6.0,55,0.00,,,0.00,weatherlink.com 1.10,2013-07-05 21:51:00,
2013-07-05 18:06:00,90.7,72.0,29.93,West,273,2.0,4.0,55,0.00,,,0.00,weatherlink.com 1.10,2013-07-05 22:06:00,
2013-07-05 18:21:00,89.9,72.0,29.97,West,278,4.0,9.0,56,0.00,,,0.00,weatherlink.com 1.10,2013-07-05 22:21:00,
2013-07-05 18:36:00,88.0,72.0,29.97,WNW,300,2.0,9.0,60,0.00,,,0.00,weatherlink.com 1.10,2013-07-05 22:36:00,
2013-07-05 18:51:00,86.5,72.0,29.97,WNW,296,1.0,7.0,62,0.00,,,0.00,weatherlink.com 1.10,2013-07-05 22:51:00,
2013-07-05 19:06:00,85.0,73.0,29.97,West,280,0.0,3.0,67,0.00,,,0.00,weatherlink.com 1.10,2013-07-05 23:06:00,
2013-07-05 19:21:00,83.8,73.0,29.96,West,280,0.0,0.0,70,0.00,,,0.00,weatherlink.com 1.10,2013-07-05 23:21:00,
2013-07-05 19:36:00,82.6,74.0,29.97,West,280,0.0,0.0,74,0.00,,,0.00,weatherlink.com 1.10,2013-07-05 23:36:00,
2013-07-05 19:51:00,81.5,74.0,29.97,West,280,0.0,1.0,77,0.00,,,0.00,weatherlink.com 1.10,2013-07-05 23:51:00,
2013-07-05 20:06:00,80.6,74.0,29.98,West,280,0.0,0.0,79,0.00,,,0.00,weatherlink.com 1.10,2013-07-06 00:06:00,
2013-07-05 20:21:00,79.9,74.0,29.98,West,280,0.0,1.0,82,0.00,,,0.00,weatherlink.com 1.10,2013-07-06 00:21:00,
2013-07-05 20:36:00,79.2,73.0,29.99,West,281,0.0,1.0,82,0.00,,,0.00,weatherlink.com 1.10,2013-07-06 00:36:00,
2013-07-05 20:51:00,78.9,73.0,30.00,North,5,0.0,1.0,83,0.00,,,0.00,weatherlink.com 1.10,2013-07-06 00:51:00,
2013-07-05 21:06:00,78.4,73.0,30.00,North,5,0.0,1.0,83,0.00,,,0.00,weatherlink.com 1.10,2013-07-06 01:06:00,
2013-07-05 21:21:00,77.9,73.0,30.01,North,5,0.0,0.0,85,0.00,,,0.00,weatherlink.com 1.10,2013-07-06 01:21:00,
2013-07-05 21:36:00,77.5,73.0,30.01,North,5,0.0,0.0,86,0.00,,,0.00,weatherlink.com 1.10,2013-07-06 01:36:00,
2013-07-05 21:51:00,77.1,73.0,30.02,North,5,0.0,0.0,87,0.00,,,0.00,weatherlink.com 1.10,2013-07-06 01:51:00,
2013-07-05 22:06:00,76.5,74.0,30.01,North,5,1.0,1.0,91,0.00,,,0.00,weatherlink.com 1.10,2013-07-06 02:06:00,
2013-07-05 22:21:00,75.1,73.0,30.01,North,5,0.0,1.0,92,0.00,,,0.00,weatherlink.com 1.10,2013-07-06 02:21:00,
2013-07-05 22:36:00,74.4,72.0,30.00,North,5,0.0,1.0,93,0.00,,,0.00,weatherlink.com 1.10,2013-07-06 02:36:00,
2013-07-05 22:51:00,74.4,73.0,30.01,North,5,0.0,0.0,94,0.00,,,0.00,weatherlink.com 1.10,2013-07-06 02:51:00,
2013-07-05 23:06:00,74.2,72.0,30.01,North,5,0.0,1.0,92,0.00,,,0.00,weatherlink.com 1.10,2013-07-06 03:06:00,
2013-07-05 23:21:00,74.4,72.0,30.01,ENE,64,0.0,4.0,91,0.00,,,0.00,weatherlink.com 1.10,2013-07-06 03:21:00,
2013-07-05 23:36:00,74.0,72.0,30.01,ENE,64,1.0,3.0,92,0.00,,,0.00,weatherlink.com 1.10,2013-07-06 03:36:00,
2013-07-05 23:51:00,73.9,72.0,30.02,ENE,64,0.0,0.0,92,0.00,,,0.00,weatherlink.com 1.10,2013-07-06 03:51:00,